sensor_id;sensor_type;location;lat;lon;timestamp;temperature;humidity
4306;DHT22;2166;49.926;8.608;2023-12-20T00:01:38;4.90;54.30
4306;DHT22;2166;49.926;8.608;2023-12-20T00:04:08;4.90;54.30
4306;DHT22;2166;49.926;8.608;2023-12-20T00:06:36;4.90;54.30
4306;DHT22;2166;49.926;8.608;2023-12-20T00:09:08;4.80;54.30
4306;DHT22;2166;49.926;8.608;2023-12-20T00:11:37;4.90;54.30
4306;DHT22;2166;49.926;8.608;2023-12-20T00:14:06;4.90;53.60
4306;DHT22;2166;49.926;8.608;2023-12-20T00:16:34;4.90;53.60
4306;DHT22;2166;49.926;8.608;2023-12-20T00:19:02;4.90;53.50
4306;DHT22;2166;49.926;8.608;2023-12-20T00:21:33;4.90;53.50
4306;DHT22;2166;49.926;8.608;2023-12-20T00:24:01;4.90;53.50
4306;DHT22;2166;49.926;8.608;2023-12-20T00:26:30;4.90;53.50
4306;DHT22;2166;49.926;8.608;2023-12-20T00:28:59;4.90;53.50
4306;DHT22;2166;49.926;8.608;2023-12-20T00:31:28;4.90;53.50
4306;DHT22;2166;49.926;8.608;2023-12-20T00:33:56;4.90;53.50
4306;DHT22;2166;49.926;8.608;2023-12-20T00:36:25;4.90;53.50
4306;DHT22;2166;49.926;8.608;2023-12-20T00:38:55;4.90;53.60
4306;DHT22;2166;49.926;8.608;2023-12-20T00:41:24;4.90;53.50
4306;DHT22;2166;49.926;8.608;2023-12-20T00:43:52;4.90;53.50
4306;DHT22;2166;49.926;8.608;2023-12-20T00:46:21;4.90;53.50
4306;DHT22;2166;49.926;8.608;2023-12-20T00:48:49;4.90;53.50
4306;DHT22;2166;49.926;8.608;2023-12-20T00:51:17;4.90;53.50
4306;DHT22;2166;49.926;8.608;2023-12-20T00:53:47;4.90;53.60
4306;DHT22;2166;49.926;8.608;2023-12-20T00:56:18;4.90;53.60
4306;DHT22;2166;49.926;8.608;2023-12-20T00:58:46;4.90;53.60
4306;DHT22;2166;49.926;8.608;2023-12-20T01:01:19;4.80;53.60
4306;DHT22;2166;49.926;8.608;2023-12-20T01:03:48;4.90;53.60
4306;DHT22;2166;49.926;8.608;2023-12-20T01:06:18;4.90;53.60
4306;DHT22;2166;49.926;8.608;2023-12-20T01:08:47;4.90;53.60
4306;DHT22;2166;49.926;8.608;2023-12-20T01:11:15;4.90;53.60
4306;DHT22;2166;49.926;8.608;2023-12-20T01:13:46;4.90;53.60
4306;DHT22;2166;49.926;8.608;2023-12-20T01:16:14;4.90;53.60
4306;DHT22;2166;49.926;8.608;2023-12-20T01:18:43;4.90;53.60
4306;DHT22;2166;49.926;8.608;2023-12-20T01:21:12;4.90;53.60
4306;DHT22;2166;49.926;8.608;2023-12-20T01:23:40;4.90;53.60
4306;DHT22;2166;49.926;8.608;2023-12-20T01:26:09;4.90;53.60
4306;DHT22;2166;49.926;8.608;2023-12-20T01:28:38;4.90;53.60
4306;DHT22;2166;49.926;8.608;2023-12-20T01:31:09;4.90;53.60
4306;DHT22;2166;49.926;8.608;2023-12-20T01:33:38;4.90;53.60
4306;DHT22;2166;49.926;8.608;2023-12-20T01:36:07;4.90;53.60
4306;DHT22;2166;49.926;8.608;2023-12-20T01:38:36;4.90;53.60
4306;DHT22;2166;49.926;8.608;2023-12-20T01:41:05;4.90;53.60
4306;DHT22;2166;49.926;8.608;2023-12-20T01:43:34;4.90;53.60
4306;DHT22;2166;49.926;8.608;2023-12-20T01:46:19;4.90;53.60
4306;DHT22;2166;49.926;8.608;2023-12-20T01:48:49;4.90;53.60
4306;DHT22;2166;49.926;8.608;2023-12-20T01:51:19;4.90;53.60
4306;DHT22;2166;49.926;8.608;2023-12-20T01:53:48;4.90;53.60
4306;DHT22;2166;49.926;8.608;2023-12-20T01:56:17;4.90;53.70
4306;DHT22;2166;49.926;8.608;2023-12-20T01:58:47;4.90;53.70
4306;DHT22;2166;49.926;8.608;2023-12-20T02:01:18;4.90;53.70
4306;DHT22;2166;49.926;8.608;2023-12-20T02:03:59;4.90;53.70
4306;DHT22;2166;49.926;8.608;2023-12-20T02:06:29;4.90;53.70
4306;DHT22;2166;49.926;8.608;2023-12-20T02:08:58;4.90;53.70
4306;DHT22;2166;49.926;8.608;2023-12-20T02:11:27;4.90;53.70
4306;DHT22;2166;49.926;8.608;2023-12-20T02:13:56;5.00;53.70
4306;DHT22;2166;49.926;8.608;2023-12-20T02:16:25;5.00;53.70
4306;DHT22;2166;49.926;8.608;2023-12-20T02:18:55;5.00;53.70
4306;DHT22;2166;49.926;8.608;2023-12-20T02:21:32;5.00;53.70
4306;DHT22;2166;49.926;8.608;2023-12-20T02:24:01;5.00;53.70
4306;DHT22;2166;49.926;8.608;2023-12-20T02:26:32;5.00;53.70
4306;DHT22;2166;49.926;8.608;2023-12-20T02:29:01;4.90;53.70
4306;DHT22;2166;49.926;8.608;2023-12-20T02:31:32;4.90;53.70
4306;DHT22;2166;49.926;8.608;2023-12-20T02:34:01;4.90;53.70
4306;DHT22;2166;49.926;8.608;2023-12-20T02:36:31;4.80;53.70
4306;DHT22;2166;49.926;8.608;2023-12-20T02:38:59;4.80;53.70
4306;DHT22;2166;49.926;8.608;2023-12-20T02:41:27;4.70;53.70
4306;DHT22;2166;49.926;8.608;2023-12-20T02:43:56;4.70;53.70
4306;DHT22;2166;49.926;8.608;2023-12-20T02:46:25;4.70;53.70
4306;DHT22;2166;49.926;8.608;2023-12-20T02:48:53;4.70;53.70
4306;DHT22;2166;49.926;8.608;2023-12-20T02:51:22;4.70;53.70
4306;DHT22;2166;49.926;8.608;2023-12-20T02:53:52;4.70;53.70
4306;DHT22;2166;49.926;8.608;2023-12-20T02:56:21;4.80;53.70
4306;DHT22;2166;49.926;8.608;2023-12-20T02:58:49;4.80;53.60
4306;DHT22;2166;49.926;8.608;2023-12-20T03:01:17;4.90;53.60
4306;DHT22;2166;49.926;8.608;2023-12-20T03:03:46;4.90;53.60
4306;DHT22;2166;49.926;8.608;2023-12-20T03:06:16;4.90;53.60
4306;DHT22;2166;49.926;8.608;2023-12-20T03:08:45;4.90;53.60
4306;DHT22;2166;49.926;8.608;2023-12-20T03:11:16;4.90;53.60
4306;DHT22;2166;49.926;8.608;2023-12-20T03:13:44;4.90;53.60
4306;DHT22;2166;49.926;8.608;2023-12-20T03:16:14;4.90;53.60
4306;DHT22;2166;49.926;8.608;2023-12-20T03:18:43;4.90;53.60
4306;DHT22;2166;49.926;8.608;2023-12-20T03:21:13;4.90;53.60
4306;DHT22;2166;49.926;8.608;2023-12-20T03:23:41;4.90;53.60
4306;DHT22;2166;49.926;8.608;2023-12-20T03:26:10;4.90;53.60
4306;DHT22;2166;49.926;8.608;2023-12-20T03:28:40;5.00;53.60
4306;DHT22;2166;49.926;8.608;2023-12-20T03:31:09;5.00;53.60
4306;DHT22;2166;49.926;8.608;2023-12-20T03:33:38;5.00;53.60
4306;DHT22;2166;49.926;8.608;2023-12-20T03:36:08;5.00;53.60
4306;DHT22;2166;49.926;8.608;2023-12-20T03:38:36;5.00;53.60
4306;DHT22;2166;49.926;8.608;2023-12-20T03:41:04;5.00;53.60
4306;DHT22;2166;49.926;8.608;2023-12-20T03:43:33;5.00;53.60
4306;DHT22;2166;49.926;8.608;2023-12-20T03:46:03;5.00;53.70
4306;DHT22;2166;49.926;8.608;2023-12-20T03:48:32;5.00;53.70
4306;DHT22;2166;49.926;8.608;2023-12-20T03:51:00;5.00;53.70
4306;DHT22;2166;49.926;8.608;2023-12-20T03:53:30;5.10;53.70
4306;DHT22;2166;49.926;8.608;2023-12-20T03:55:59;5.00;53.70
4306;DHT22;2166;49.926;8.608;2023-12-20T03:58:28;5.10;53.80
4306;DHT22;2166;49.926;8.608;2023-12-20T04:00:57;5.10;53.80
4306;DHT22;2166;49.926;8.608;2023-12-20T04:03:28;5.10;53.80
4306;DHT22;2166;49.926;8.608;2023-12-20T04:05:56;5.10;53.80
4306;DHT22;2166;49.926;8.608;2023-12-20T04:08:25;5.10;53.80
4306;DHT22;2166;49.926;8.608;2023-12-20T04:10:54;5.10;53.80
4306;DHT22;2166;49.926;8.608;2023-12-20T04:13:23;5.10;53.80
4306;DHT22;2166;49.926;8.608;2023-12-20T04:15:52;5.10;53.80
4306;DHT22;2166;49.926;8.608;2023-12-20T04:18:20;5.10;53.80
4306;DHT22;2166;49.926;8.608;2023-12-20T04:20:52;5.10;53.80
4306;DHT22;2166;49.926;8.608;2023-12-20T04:23:20;5.10;53.80
4306;DHT22;2166;49.926;8.608;2023-12-20T04:25:50;5.10;53.90
4306;DHT22;2166;49.926;8.608;2023-12-20T04:28:18;5.10;53.90
4306;DHT22;2166;49.926;8.608;2023-12-20T04:30:47;5.10;53.80
4306;DHT22;2166;49.926;8.608;2023-12-20T04:33:16;5.10;53.90
4306;DHT22;2166;49.926;8.608;2023-12-20T04:35:45;5.10;53.80
4306;DHT22;2166;49.926;8.608;2023-12-20T04:38:15;5.10;53.80
4306;DHT22;2166;49.926;8.608;2023-12-20T04:40:43;5.10;53.90
4306;DHT22;2166;49.926;8.608;2023-12-20T04:43:12;5.10;53.90
4306;DHT22;2166;49.926;8.608;2023-12-20T04:45:41;5.10;53.80
4306;DHT22;2166;49.926;8.608;2023-12-20T04:48:10;5.10;53.90
4306;DHT22;2166;49.926;8.608;2023-12-20T04:50:39;5.10;53.80
4306;DHT22;2166;49.926;8.608;2023-12-20T04:53:09;5.20;53.80
4306;DHT22;2166;49.926;8.608;2023-12-20T04:55:39;5.10;53.80
4306;DHT22;2166;49.926;8.608;2023-12-20T04:58:07;5.20;53.80
4306;DHT22;2166;49.926;8.608;2023-12-20T05:00:36;5.10;53.90
4306;DHT22;2166;49.926;8.608;2023-12-20T05:03:04;5.10;54.00
4306;DHT22;2166;49.926;8.608;2023-12-20T05:05:44;5.00;54.00
4306;DHT22;2166;49.926;8.608;2023-12-20T05:08:13;5.00;54.00
4306;DHT22;2166;49.926;8.608;2023-12-20T05:10:44;4.90;54.80
4306;DHT22;2166;49.926;8.608;2023-12-20T05:13:12;4.80;54.80
4306;DHT22;2166;49.926;8.608;2023-12-20T05:15:41;4.70;54.90
4306;DHT22;2166;49.926;8.608;2023-12-20T05:18:10;4.60;54.90
4306;DHT22;2166;49.926;8.608;2023-12-20T05:20:40;4.60;54.90
4306;DHT22;2166;49.926;8.608;2023-12-20T05:23:09;4.50;54.90
4306;DHT22;2166;49.926;8.608;2023-12-20T05:25:38;4.50;54.90
4306;DHT22;2166;49.926;8.608;2023-12-20T05:28:09;4.50;54.90
4306;DHT22;2166;49.926;8.608;2023-12-20T05:30:38;4.50;54.70
4306;DHT22;2166;49.926;8.608;2023-12-20T05:33:06;4.60;54.70
4306;DHT22;2166;49.926;8.608;2023-12-20T05:35:35;4.60;54.70
4306;DHT22;2166;49.926;8.608;2023-12-20T05:38:04;4.60;54.90
4306;DHT22;2166;49.926;8.608;2023-12-20T05:40:34;4.70;54.90
4306;DHT22;2166;49.926;8.608;2023-12-20T05:43:03;4.60;55.00
4306;DHT22;2166;49.926;8.608;2023-12-20T05:45:33;4.60;55.00
4306;DHT22;2166;49.926;8.608;2023-12-20T05:48:02;4.50;55.10
4306;DHT22;2166;49.926;8.608;2023-12-20T05:50:31;4.40;55.20
4306;DHT22;2166;49.926;8.608;2023-12-20T05:52:59;4.40;55.40
4306;DHT22;2166;49.926;8.608;2023-12-20T05:55:28;4.30;55.50
4306;DHT22;2166;49.926;8.608;2023-12-20T05:57:56;4.30;55.50
4306;DHT22;2166;49.926;8.608;2023-12-20T06:00:25;4.20;55.50
4306;DHT22;2166;49.926;8.608;2023-12-20T06:02:55;4.30;55.40
4306;DHT22;2166;49.926;8.608;2023-12-20T06:05:24;4.40;55.30
4306;DHT22;2166;49.926;8.608;2023-12-20T06:07:54;4.40;55.30
4306;DHT22;2166;49.926;8.608;2023-12-20T06:10:24;4.40;55.40
4306;DHT22;2166;49.926;8.608;2023-12-20T06:12:52;4.40;55.50
4306;DHT22;2166;49.926;8.608;2023-12-20T06:15:22;4.30;55.70
4306;DHT22;2166;49.926;8.608;2023-12-20T06:17:50;4.30;55.80
4306;DHT22;2166;49.926;8.608;2023-12-20T06:20:21;4.30;55.80
4306;DHT22;2166;49.926;8.608;2023-12-20T06:22:49;4.20;56.00
4306;DHT22;2166;49.926;8.608;2023-12-20T06:25:18;4.20;56.00
4306;DHT22;2166;49.926;8.608;2023-12-20T06:27:46;4.10;56.30
4306;DHT22;2166;49.926;8.608;2023-12-20T06:30:16;4.00;56.40
4306;DHT22;2166;49.926;8.608;2023-12-20T06:32:45;4.00;56.30
4306;DHT22;2166;49.926;8.608;2023-12-20T06:35:15;4.00;56.30
4306;DHT22;2166;49.926;8.608;2023-12-20T06:37:44;3.90;56.30
4306;DHT22;2166;49.926;8.608;2023-12-20T06:40:13;3.90;56.20
4306;DHT22;2166;49.926;8.608;2023-12-20T06:42:45;3.80;56.10
4306;DHT22;2166;49.926;8.608;2023-12-20T06:45:31;3.80;55.90
4306;DHT22;2166;49.926;8.608;2023-12-20T06:48:00;3.70;55.90
4306;DHT22;2166;49.926;8.608;2023-12-20T06:50:30;3.60;56.10
4306;DHT22;2166;49.926;8.608;2023-12-20T06:53:00;3.50;55.90
4306;DHT22;2166;49.926;8.608;2023-12-20T06:55:35;3.50;55.70
4306;DHT22;2166;49.926;8.608;2023-12-20T06:58:05;3.40;55.80
4306;DHT22;2166;49.926;8.608;2023-12-20T07:00:34;3.30;55.80
4306;DHT22;2166;49.926;8.608;2023-12-20T07:03:02;3.30;55.90
4306;DHT22;2166;49.926;8.608;2023-12-20T07:05:31;3.20;55.90
4306;DHT22;2166;49.926;8.608;2023-12-20T07:08:01;3.20;55.90
4306;DHT22;2166;49.926;8.608;2023-12-20T07:10:30;3.10;56.00
4306;DHT22;2166;49.926;8.608;2023-12-20T07:12:58;3.00;55.90
4306;DHT22;2166;49.926;8.608;2023-12-20T07:15:27;3.00;55.80
4306;DHT22;2166;49.926;8.608;2023-12-20T07:17:56;3.00;55.70
4306;DHT22;2166;49.926;8.608;2023-12-20T07:20:28;3.00;55.60
4306;DHT22;2166;49.926;8.608;2023-12-20T07:22:57;3.00;55.60
4306;DHT22;2166;49.926;8.608;2023-12-20T07:25:27;3.00;55.50
4306;DHT22;2166;49.926;8.608;2023-12-20T07:27:57;3.10;55.40
4306;DHT22;2166;49.926;8.608;2023-12-20T07:30:26;3.20;55.40
4306;DHT22;2166;49.926;8.608;2023-12-20T07:32:55;3.20;55.40
4306;DHT22;2166;49.926;8.608;2023-12-20T07:35:24;3.30;55.40
4306;DHT22;2166;49.926;8.608;2023-12-20T07:37:54;3.30;55.50
4306;DHT22;2166;49.926;8.608;2023-12-20T07:40:23;3.40;55.60
4306;DHT22;2166;49.926;8.608;2023-12-20T07:42:54;3.50;55.50
4306;DHT22;2166;49.926;8.608;2023-12-20T07:45:23;3.60;55.60
4306;DHT22;2166;49.926;8.608;2023-12-20T07:47:53;3.80;55.70
4306;DHT22;2166;49.926;8.608;2023-12-20T07:50:22;4.00;55.70
4306;DHT22;2166;49.926;8.608;2023-12-20T07:52:51;4.10;56.00
4306;DHT22;2166;49.926;8.608;2023-12-20T07:55:20;4.20;56.40
4306;DHT22;2166;49.926;8.608;2023-12-20T07:57:49;4.40;56.50
4306;DHT22;2166;49.926;8.608;2023-12-20T08:00:20;4.40;57.10
4306;DHT22;2166;49.926;8.608;2023-12-20T08:02:49;4.50;57.30
4306;DHT22;2166;49.926;8.608;2023-12-20T08:05:19;4.50;58.10
4306;DHT22;2166;49.926;8.608;2023-12-20T08:07:48;4.50;57.90
4306;DHT22;2166;49.926;8.608;2023-12-20T08:10:17;4.60;58.20
4306;DHT22;2166;49.926;8.608;2023-12-20T08:12:46;4.50;58.80
4306;DHT22;2166;49.926;8.608;2023-12-20T08:15:16;4.40;59.00
4306;DHT22;2166;49.926;8.608;2023-12-20T08:17:46;4.40;59.00
4306;DHT22;2166;49.926;8.608;2023-12-20T08:20:15;4.40;58.70
4306;DHT22;2166;49.926;8.608;2023-12-20T08:22:56;4.50;58.60
4306;DHT22;2166;49.926;8.608;2023-12-20T08:25:26;4.80;58.60
4306;DHT22;2166;49.926;8.608;2023-12-20T08:27:54;5.30;59.90
4306;DHT22;2166;49.926;8.608;2023-12-20T08:30:23;5.80;62.60
4306;DHT22;2166;49.926;8.608;2023-12-20T08:32:53;6.00;66.10
4306;DHT22;2166;49.926;8.608;2023-12-20T08:35:22;5.90;67.70
4306;DHT22;2166;49.926;8.608;2023-12-20T08:37:51;5.80;66.90
4306;DHT22;2166;49.926;8.608;2023-12-20T08:40:20;5.70;66.90
4306;DHT22;2166;49.926;8.608;2023-12-20T08:42:48;5.60;66.90
4306;DHT22;2166;49.926;8.608;2023-12-20T08:45:16;5.40;65.70
4306;DHT22;2166;49.926;8.608;2023-12-20T08:47:46;5.40;65.10
4306;DHT22;2166;49.926;8.608;2023-12-20T08:50:17;5.40;64.70
4306;DHT22;2166;49.926;8.608;2023-12-20T08:52:46;5.50;65.10
4306;DHT22;2166;49.926;8.608;2023-12-20T08:55:14;5.50;64.50
4306;DHT22;2166;49.926;8.608;2023-12-20T08:57:45;5.70;62.80
4306;DHT22;2166;49.926;8.608;2023-12-20T09:00:16;6.10;65.90
4306;DHT22;2166;49.926;8.608;2023-12-20T09:02:47;6.20;67.20
4306;DHT22;2166;49.926;8.608;2023-12-20T09:05:17;6.20;68.00
4306;DHT22;2166;49.926;8.608;2023-12-20T09:07:46;6.20;67.80
4306;DHT22;2166;49.926;8.608;2023-12-20T09:10:15;6.00;66.80
4306;DHT22;2166;49.926;8.608;2023-12-20T09:12:45;5.90;66.30
4306;DHT22;2166;49.926;8.608;2023-12-20T09:15:15;5.90;65.70
4306;DHT22;2166;49.926;8.608;2023-12-20T09:17:44;5.90;65.80
4306;DHT22;2166;49.926;8.608;2023-12-20T09:20:13;5.90;64.80
4306;DHT22;2166;49.926;8.608;2023-12-20T09:22:44;6.00;65.70
4306;DHT22;2166;49.926;8.608;2023-12-20T09:25:13;6.00;66.20
4306;DHT22;2166;49.926;8.608;2023-12-20T09:27:43;6.00;65.80
4306;DHT22;2166;49.926;8.608;2023-12-20T09:30:12;6.00;65.60
4306;DHT22;2166;49.926;8.608;2023-12-20T09:32:53;6.10;65.20
4306;DHT22;2166;49.926;8.608;2023-12-20T09:35:22;6.00;64.90
4306;DHT22;2166;49.926;8.608;2023-12-20T09:37:53;6.00;65.60
4306;DHT22;2166;49.926;8.608;2023-12-20T09:40:22;6.00;64.50
4306;DHT22;2166;49.926;8.608;2023-12-20T09:42:57;6.10;63.90
4306;DHT22;2166;49.926;8.608;2023-12-20T09:45:26;6.20;65.70
4306;DHT22;2166;49.926;8.608;2023-12-20T09:47:54;6.10;65.60
4306;DHT22;2166;49.926;8.608;2023-12-20T09:50:23;6.10;65.20
4306;DHT22;2166;49.926;8.608;2023-12-20T09:52:57;6.20;64.10
4306;DHT22;2166;49.926;8.608;2023-12-20T09:55:28;6.20;64.80
4306;DHT22;2166;49.926;8.608;2023-12-20T09:57:59;6.30;64.50
4306;DHT22;2166;49.926;8.608;2023-12-20T10:00:28;6.40;64.60
4306;DHT22;2166;49.926;8.608;2023-12-20T10:02:58;6.50;65.40
4306;DHT22;2166;49.926;8.608;2023-12-20T10:05:28;6.60;66.80
4306;DHT22;2166;49.926;8.608;2023-12-20T10:08:00;6.60;66.90
4306;DHT22;2166;49.926;8.608;2023-12-20T10:10:30;6.70;66.20
4306;DHT22;2166;49.926;8.608;2023-12-20T10:13:12;6.70;65.40
4306;DHT22;2166;49.926;8.608;2023-12-20T10:15:41;6.80;67.00
4306;DHT22;2166;49.926;8.608;2023-12-20T10:18:11;6.90;68.10
4306;DHT22;2166;49.926;8.608;2023-12-20T10:20:41;7.00;67.60
4306;DHT22;2166;49.926;8.608;2023-12-20T10:23:13;7.00;68.60
4306;DHT22;2166;49.926;8.608;2023-12-20T10:25:56;7.00;68.60
4306;DHT22;2166;49.926;8.608;2023-12-20T10:28:25;7.10;68.80
4306;DHT22;2166;49.926;8.608;2023-12-20T10:30:55;7.20;69.20
4306;DHT22;2166;49.926;8.608;2023-12-20T10:33:25;7.30;70.90
4306;DHT22;2166;49.926;8.608;2023-12-20T10:35:55;7.20;70.20
4306;DHT22;2166;49.926;8.608;2023-12-20T10:38:25;7.20;71.20
4306;DHT22;2166;49.926;8.608;2023-12-20T10:40:57;7.20;70.40
4306;DHT22;2166;49.926;8.608;2023-12-20T10:43:26;7.20;71.00
4306;DHT22;2166;49.926;8.608;2023-12-20T10:45:58;7.20;71.10
4306;DHT22;2166;49.926;8.608;2023-12-20T10:48:30;7.30;71.30
4306;DHT22;2166;49.926;8.608;2023-12-20T10:51:01;7.40;70.10
4306;DHT22;2166;49.926;8.608;2023-12-20T10:53:31;7.50;71.00
4306;DHT22;2166;49.926;8.608;2023-12-20T10:56:03;7.50;71.40
4306;DHT22;2166;49.926;8.608;2023-12-20T10:58:33;7.60;72.00
4306;DHT22;2166;49.926;8.608;2023-12-20T11:01:04;7.50;72.00
4306;DHT22;2166;49.926;8.608;2023-12-20T11:03:35;7.50;71.50
4306;DHT22;2166;49.926;8.608;2023-12-20T11:06:10;7.60;72.30
4306;DHT22;2166;49.926;8.608;2023-12-20T11:08:48;7.70;71.50
4306;DHT22;2166;49.926;8.608;2023-12-20T11:11:29;7.70;74.00
4306;DHT22;2166;49.926;8.608;2023-12-20T11:14:05;7.80;74.30
4306;DHT22;2166;49.926;8.608;2023-12-20T11:16:37;7.70;74.50
4306;DHT22;2166;49.926;8.608;2023-12-20T11:19:18;7.70;74.50
4306;DHT22;2166;49.926;8.608;2023-12-20T11:21:47;7.70;74.20
4306;DHT22;2166;49.926;8.608;2023-12-20T11:24:21;7.70;75.50
4306;DHT22;2166;49.926;8.608;2023-12-20T11:26:56;7.80;75.00
4306;DHT22;2166;49.926;8.608;2023-12-20T11:29:33;7.70;75.30
4306;DHT22;2166;49.926;8.608;2023-12-20T11:32:04;7.70;75.50
4306;DHT22;2166;49.926;8.608;2023-12-20T11:34:54;7.70;75.40
4306;DHT22;2166;49.926;8.608;2023-12-20T11:37:28;7.70;74.40
4306;DHT22;2166;49.926;8.608;2023-12-20T11:40:05;7.80;74.70
4306;DHT22;2166;49.926;8.608;2023-12-20T11:42:38;7.80;75.60
4306;DHT22;2166;49.926;8.608;2023-12-20T11:45:09;7.80;75.90
4306;DHT22;2166;49.926;8.608;2023-12-20T11:47:38;7.80;75.90
4306;DHT22;2166;49.926;8.608;2023-12-20T11:50:08;7.90;75.40
4306;DHT22;2166;49.926;8.608;2023-12-20T11:52:37;7.90;75.40
4306;DHT22;2166;49.926;8.608;2023-12-20T11:55:08;7.90;75.60
4306;DHT22;2166;49.926;8.608;2023-12-20T11:57:40;7.90;75.00
4306;DHT22;2166;49.926;8.608;2023-12-20T12:00:10;7.90;75.60
4306;DHT22;2166;49.926;8.608;2023-12-20T12:02:40;7.90;74.50
4306;DHT22;2166;49.926;8.608;2023-12-20T12:05:11;7.80;75.50
4306;DHT22;2166;49.926;8.608;2023-12-20T12:07:39;7.80;75.00
4306;DHT22;2166;49.926;8.608;2023-12-20T12:10:10;7.80;75.20
4306;DHT22;2166;49.926;8.608;2023-12-20T12:12:41;7.80;75.60
4306;DHT22;2166;49.926;8.608;2023-12-20T12:15:10;7.80;75.40
4306;DHT22;2166;49.926;8.608;2023-12-20T12:17:40;7.70;76.80
4306;DHT22;2166;49.926;8.608;2023-12-20T12:20:09;7.70;77.50
4306;DHT22;2166;49.926;8.608;2023-12-20T12:22:39;7.70;77.80
4306;DHT22;2166;49.926;8.608;2023-12-20T12:25:12;7.70;76.80
4306;DHT22;2166;49.926;8.608;2023-12-20T12:27:43;7.80;77.60
4306;DHT22;2166;49.926;8.608;2023-12-20T12:30:12;7.80;77.60
4306;DHT22;2166;49.926;8.608;2023-12-20T12:32:44;7.90;78.00
4306;DHT22;2166;49.926;8.608;2023-12-20T12:35:14;7.90;77.70
4306;DHT22;2166;49.926;8.608;2023-12-20T12:37:43;8.00;77.80
4306;DHT22;2166;49.926;8.608;2023-12-20T12:40:14;8.00;78.60
4306;DHT22;2166;49.926;8.608;2023-12-20T12:42:44;8.10;78.10
4306;DHT22;2166;49.926;8.608;2023-12-20T12:45:14;8.50;77.90
4306;DHT22;2166;49.926;8.608;2023-12-20T12:47:43;8.80;78.00
4306;DHT22;2166;49.926;8.608;2023-12-20T12:50:13;9.40;78.30
4306;DHT22;2166;49.926;8.608;2023-12-20T12:52:42;9.80;77.10
4306;DHT22;2166;49.926;8.608;2023-12-20T12:55:13;9.90;76.60
4306;DHT22;2166;49.926;8.608;2023-12-20T12:57:42;9.80;76.90
4306;DHT22;2166;49.926;8.608;2023-12-20T13:00:12;9.60;77.30
4306;DHT22;2166;49.926;8.608;2023-12-20T13:02:40;9.40;77.10
4306;DHT22;2166;49.926;8.608;2023-12-20T13:05:09;9.20;77.30
4306;DHT22;2166;49.926;8.608;2023-12-20T13:07:39;9.00;77.50
4306;DHT22;2166;49.926;8.608;2023-12-20T13:10:09;9.00;77.40
4306;DHT22;2166;49.926;8.608;2023-12-20T13:12:40;9.30;77.60
4306;DHT22;2166;49.926;8.608;2023-12-20T13:15:09;9.50;77.30
4306;DHT22;2166;49.926;8.608;2023-12-20T13:17:37;9.50;77.90
4306;DHT22;2166;49.926;8.608;2023-12-20T13:20:08;9.30;78.10
4306;DHT22;2166;49.926;8.608;2023-12-20T13:22:37;9.20;77.90
4306;DHT22;2166;49.926;8.608;2023-12-20T13:25:06;9.00;77.50
4306;DHT22;2166;49.926;8.608;2023-12-20T13:27:36;8.80;77.00
4306;DHT22;2166;49.926;8.608;2023-12-20T13:30:08;8.90;77.40
4306;DHT22;2166;49.926;8.608;2023-12-20T13:32:36;9.30;77.60
4306;DHT22;2166;49.926;8.608;2023-12-20T13:35:06;9.40;77.50
4306;DHT22;2166;49.926;8.608;2023-12-20T13:37:34;9.30;77.30
4306;DHT22;2166;49.926;8.608;2023-12-20T13:40:05;9.10;77.30
4306;DHT22;2166;49.926;8.608;2023-12-20T13:42:34;9.00;77.20
4306;DHT22;2166;49.926;8.608;2023-12-20T13:45:03;8.70;77.00
4306;DHT22;2166;49.926;8.608;2023-12-20T13:47:33;8.40;76.80
4306;DHT22;2166;49.926;8.608;2023-12-20T13:50:02;8.30;76.30
4306;DHT22;2166;49.926;8.608;2023-12-20T13:52:31;8.10;76.50
4306;DHT22;2166;49.926;8.608;2023-12-20T13:55:03;8.20;76.20
4306;DHT22;2166;49.926;8.608;2023-12-20T13:57:32;8.40;76.90
4306;DHT22;2166;49.926;8.608;2023-12-20T14:00:18;8.40;76.10
4306;DHT22;2166;49.926;8.608;2023-12-20T14:02:49;8.50;76.50
4306;DHT22;2166;49.926;8.608;2023-12-20T14:05:18;8.40;76.20
4306;DHT22;2166;49.926;8.608;2023-12-20T14:07:50;8.20;77.00
4306;DHT22;2166;49.926;8.608;2023-12-20T14:10:19;8.00;76.40
4306;DHT22;2166;49.926;8.608;2023-12-20T14:12:49;8.00;75.70
4306;DHT22;2166;49.926;8.608;2023-12-20T14:15:18;7.90;75.30
4306;DHT22;2166;49.926;8.608;2023-12-20T14:17:46;7.90;75.60
4306;DHT22;2166;49.926;8.608;2023-12-20T14:20:19;7.80;75.10
4306;DHT22;2166;49.926;8.608;2023-12-20T14:22:47;7.70;74.40
4306;DHT22;2166;49.926;8.608;2023-12-20T14:25:16;7.70;74.40
4306;DHT22;2166;49.926;8.608;2023-12-20T14:27:45;7.80;75.00
4306;DHT22;2166;49.926;8.608;2023-12-20T14:30:14;7.80;74.80
4306;DHT22;2166;49.926;8.608;2023-12-20T14:32:44;7.80;74.40
4306;DHT22;2166;49.926;8.608;2023-12-20T14:35:14;7.80;75.00
4306;DHT22;2166;49.926;8.608;2023-12-20T14:37:44;7.70;74.90
4306;DHT22;2166;49.926;8.608;2023-12-20T14:40:14;7.70;74.30
4306;DHT22;2166;49.926;8.608;2023-12-20T14:42:46;7.60;74.20
4306;DHT22;2166;49.926;8.608;2023-12-20T14:45:16;7.60;74.40
4306;DHT22;2166;49.926;8.608;2023-12-20T14:47:45;7.60;74.90
4306;DHT22;2166;49.926;8.608;2023-12-20T14:50:15;7.60;74.60
4306;DHT22;2166;49.926;8.608;2023-12-20T14:52:47;7.60;74.60
4306;DHT22;2166;49.926;8.608;2023-12-20T14:55:16;7.60;74.60
4306;DHT22;2166;49.926;8.608;2023-12-20T14:57:46;7.50;74.60
4306;DHT22;2166;49.926;8.608;2023-12-20T15:00:16;7.50;75.00
4306;DHT22;2166;49.926;8.608;2023-12-20T15:02:48;7.40;75.10
4306;DHT22;2166;49.926;8.608;2023-12-20T15:05:18;7.40;74.30
4306;DHT22;2166;49.926;8.608;2023-12-20T15:07:49;7.40;74.50
4306;DHT22;2166;49.926;8.608;2023-12-20T15:10:18;7.30;74.20
4306;DHT22;2166;49.926;8.608;2023-12-20T15:12:47;7.30;74.20
4306;DHT22;2166;49.926;8.608;2023-12-20T15:15:16;7.20;73.70
4306;DHT22;2166;49.926;8.608;2023-12-20T15:17:45;7.20;74.10
4306;DHT22;2166;49.926;8.608;2023-12-20T15:20:15;7.20;73.50
4306;DHT22;2166;49.926;8.608;2023-12-20T15:22:44;7.20;73.40
4306;DHT22;2166;49.926;8.608;2023-12-20T15:25:14;7.10;74.00
4306;DHT22;2166;49.926;8.608;2023-12-20T15:27:48;7.10;73.20
4306;DHT22;2166;49.926;8.608;2023-12-20T15:30:20;7.10;73.80
4306;DHT22;2166;49.926;8.608;2023-12-20T15:32:51;7.10;73.00
4306;DHT22;2166;49.926;8.608;2023-12-20T15:35:19;7.10;73.20
4306;DHT22;2166;49.926;8.608;2023-12-20T15:37:48;7.10;72.90
4306;DHT22;2166;49.926;8.608;2023-12-20T15:40:19;7.10;73.00
4306;DHT22;2166;49.926;8.608;2023-12-20T15:42:48;7.10;73.00
4306;DHT22;2166;49.926;8.608;2023-12-20T15:45:15;7.10;73.10
4306;DHT22;2166;49.926;8.608;2023-12-20T15:47:45;7.10;73.50
4306;DHT22;2166;49.926;8.608;2023-12-20T15:50:16;7.10;73.00
4306;DHT22;2166;49.926;8.608;2023-12-20T15:52:46;7.10;73.10
4306;DHT22;2166;49.926;8.608;2023-12-20T15:55:15;7.10;72.80
4306;DHT22;2166;49.926;8.608;2023-12-20T15:57:45;7.10;72.90
4306;DHT22;2166;49.926;8.608;2023-12-20T16:00:21;7.10;73.00
4306;DHT22;2166;49.926;8.608;2023-12-20T16:02:49;7.10;72.80
4306;DHT22;2166;49.926;8.608;2023-12-20T16:05:17;7.10;72.50
4306;DHT22;2166;49.926;8.608;2023-12-20T16:07:47;7.10;72.90
4306;DHT22;2166;49.926;8.608;2023-12-20T16:10:16;7.10;72.80
4306;DHT22;2166;49.926;8.608;2023-12-20T16:12:48;7.10;73.00
4306;DHT22;2166;49.926;8.608;2023-12-20T16:15:17;7.10;72.70
4306;DHT22;2166;49.926;8.608;2023-12-20T16:17:45;7.10;72.60
4306;DHT22;2166;49.926;8.608;2023-12-20T16:20:15;7.10;72.00
4306;DHT22;2166;49.926;8.608;2023-12-20T16:22:44;7.00;72.10
4306;DHT22;2166;49.926;8.608;2023-12-20T16:25:13;7.00;71.10
4306;DHT22;2166;49.926;8.608;2023-12-20T16:27:42;7.00;70.50
4306;DHT22;2166;49.926;8.608;2023-12-20T16:30:16;6.90;69.90
4306;DHT22;2166;49.926;8.608;2023-12-20T16:32:45;6.90;69.70
4306;DHT22;2166;49.926;8.608;2023-12-20T16:35:15;6.90;69.50